createdAt,value
2019-02-18T00:02:17.594Z,7.27
2019-02-18T00:04:49.617Z,7.33
2019-02-18T00:07:21.612Z,7.20
2019-02-18T00:09:53.626Z,7.73
2019-02-18T00:12:25.662Z,7.30
2019-02-18T00:14:57.616Z,7.50
2019-02-18T00:17:29.626Z,6.43
2019-02-18T00:20:01.629Z,7.13
2019-02-18T00:22:33.616Z,7.67
2019-02-18T00:25:05.613Z,7.10
2019-02-18T00:27:37.672Z,7.77
2019-02-18T00:30:09.634Z,7.97
2019-02-18T00:32:41.651Z,7.30
2019-02-18T00:35:13.651Z,7.43
2019-02-18T00:37:45.658Z,7.37
2019-02-18T00:40:17.654Z,6.77
2019-02-18T00:42:49.660Z,8.20
2019-02-18T00:45:21.661Z,10.53
2019-02-18T00:47:53.647Z,11.17
2019-02-18T00:50:25.678Z,12.17
2019-02-18T00:52:57.693Z,7.73
2019-02-18T00:55:29.669Z,7.70
2019-02-18T00:58:01.682Z,6.73
2019-02-18T01:00:33.907Z,7.60
2019-02-18T01:03:06.035Z,7.30
2019-02-18T01:05:38.021Z,8.37
2019-02-18T01:08:10.019Z,8.10
2019-02-18T01:10:41.999Z,8.30
2019-02-18T01:13:13.998Z,7.90
2019-02-18T01:15:45.975Z,7.57
2019-02-18T01:18:18.093Z,7.67
2019-02-18T01:20:50.081Z,9.10
2019-02-18T01:23:22.191Z,8.80
2019-02-18T01:25:54.161Z,8.93
2019-02-18T01:28:26.174Z,9.37
2019-02-18T01:30:58.203Z,9.33
2019-02-18T01:33:30.234Z,9.43
2019-02-18T01:36:02.205Z,10.33
2019-02-18T01:38:34.197Z,9.60
2019-02-18T01:41:06.175Z,9.80
2019-02-18T01:43:38.155Z,9.43
2019-02-18T01:46:10.096Z,9.20
2019-02-18T01:48:42.108Z,8.93
2019-02-18T01:51:14.085Z,9.67
2019-02-18T01:53:46.904Z,9.87
2019-02-18T01:56:18.891Z,9.37
2019-02-18T01:58:50.874Z,8.70
2019-02-18T02:01:22.829Z,8.70
2019-02-18T02:03:54.819Z,9.57
2019-02-18T02:06:26.772Z,9.27
2019-02-18T02:08:58.751Z,8.70
2019-02-18T02:11:30.760Z,8.43
2019-02-18T02:14:02.750Z,8.63
2019-02-18T02:16:34.716Z,9.00
2019-02-18T02:19:06.728Z,7.97
2019-02-18T02:21:38.696Z,9.30
2019-02-18T02:24:10.686Z,8.57
2019-02-18T02:26:42.658Z,8.23
2019-02-18T02:29:14.690Z,8.43
2019-02-18T02:31:46.687Z,8.60
2019-02-18T02:34:18.676Z,8.10
2019-02-18T02:36:50.667Z,8.97
2019-02-18T02:39:22.672Z,8.87
2019-02-18T02:41:54.649Z,8.77
2019-02-18T02:44:26.599Z,8.20
2019-02-18T02:46:58.575Z,8.30
2019-02-18T02:49:30.554Z,8.63
2019-02-18T02:52:02.517Z,8.37
2019-02-18T02:54:34.481Z,8.83
2019-02-18T02:57:06.489Z,7.83
2019-02-18T02:59:38.463Z,7.63
2019-02-18T03:02:10.464Z,9.23
2019-02-18T03:04:42.430Z,9.77
2019-02-18T03:07:14.412Z,8.57
2019-02-18T03:09:46.355Z,9.53
2019-02-18T03:12:18.362Z,9.87
2019-02-18T03:14:50.334Z,9.27
2019-02-18T03:17:22.340Z,9.77
2019-02-18T03:19:54.325Z,8.83
2019-02-18T03:22:26.333Z,10.13
2019-02-18T03:25:21.420Z,10.00
2019-02-18T03:28:06.503Z,9.60
2019-02-18T03:30:43.952Z,9.30
2019-02-18T03:33:19.330Z,9.83
2019-02-18T03:35:51.330Z,10.60
2019-02-18T03:38:31.275Z,9.77
2019-02-18T03:41:03.255Z,10.33
2019-02-18T03:43:31.033Z,9.87
2019-02-18T03:46:02.993Z,8.50
2019-02-18T03:48:34.996Z,9.60
2019-02-18T03:51:06.975Z,9.67
2019-02-18T03:53:38.956Z,10.90
2019-02-18T03:56:10.906Z,10.30
2019-02-18T03:58:42.889Z,10.50
2019-02-18T04:01:14.835Z,11.93
2019-02-18T04:03:46.811Z,11.73
2019-02-18T04:06:18.774Z,10.67
2019-02-18T04:08:50.742Z,11.30
2019-02-18T04:11:22.712Z,11.53
2019-02-18T04:13:54.733Z,10.63
2019-02-18T04:16:26.670Z,10.57
2019-02-18T04:18:58.667Z,11.00
2019-02-18T04:21:30.645Z,10.27
2019-02-18T04:24:02.622Z,10.60
2019-02-18T04:26:34.585Z,11.20
2019-02-18T04:29:06.700Z,10.40
2019-02-18T04:31:38.657Z,10.53
2019-02-18T04:34:10.666Z,10.00
2019-02-18T04:36:42.876Z,11.03
2019-02-18T04:39:15.303Z,9.53
2019-02-18T04:41:47.292Z,12.40
2019-02-18T04:44:19.298Z,12.70
2019-02-18T04:46:51.516Z,11.40
2019-02-18T04:49:23.522Z,10.77
2019-02-18T04:51:55.502Z,10.33
2019-02-18T04:54:27.473Z,9.60
2019-02-18T04:56:59.451Z,9.30
2019-02-18T04:59:31.420Z,11.93
2019-02-18T05:02:03.399Z,11.60
2019-02-18T05:04:35.355Z,12.07
2019-02-18T05:07:07.331Z,11.70
2019-02-18T05:09:40.125Z,11.50
2019-02-18T05:12:12.349Z,10.43
2019-02-18T05:14:44.335Z,10.23
2019-02-18T05:17:16.350Z,10.77
2019-02-18T05:19:48.330Z,10.23
2019-02-18T05:22:20.308Z,9.90
2019-02-18T05:24:52.265Z,10.13
2019-02-18T05:27:33.097Z,9.93
2019-02-18T05:29:58.097Z,10.63
2019-02-18T05:32:30.101Z,17.93
2019-02-18T05:35:02.098Z,16.57
2019-02-18T05:37:34.045Z,13.93
2019-02-18T05:40:06.069Z,11.63
2019-02-18T05:42:38.053Z,10.70
2019-02-18T05:45:10.082Z,10.47
2019-02-18T05:47:42.088Z,10.40
2019-02-18T05:50:14.078Z,10.47
2019-02-18T05:52:46.068Z,11.63
2019-02-18T05:55:18.025Z,10.77
2019-02-18T05:57:50.021Z,11.10
2019-02-18T06:00:21.976Z,11.47
2019-02-18T06:02:53.974Z,11.23
2019-02-18T06:05:25.946Z,11.27
2019-02-18T06:07:57.944Z,11.17
2019-02-18T06:10:29.932Z,11.80
2019-02-18T06:13:01.943Z,10.50
2019-02-18T06:15:33.917Z,11.00
2019-02-18T06:18:05.964Z,11.37
2019-02-18T06:20:37.954Z,10.30
2019-02-18T06:23:09.933Z,12.23
2019-02-18T06:25:41.966Z,13.13
2019-02-18T06:28:13.976Z,11.27
2019-02-18T06:30:45.932Z,11.67
2019-02-18T06:33:17.923Z,12.57
2019-02-18T06:35:50.417Z,11.93
2019-02-18T06:38:22.447Z,11.63
2019-02-18T06:40:54.415Z,12.87
2019-02-18T06:43:26.420Z,11.80
2019-02-18T06:46:12.194Z,12.57
2019-02-18T06:48:50.985Z,13.30
2019-02-18T06:51:22.962Z,12.33
2019-02-18T06:53:55.000Z,11.67
2019-02-18T06:56:46.540Z,12.63
2019-02-18T06:59:24.166Z,12.60
2019-02-18T07:02:15.773Z,12.00
2019-02-18T07:05:07.412Z,13.50
2019-02-18T07:07:59.085Z,13.07
2019-02-18T07:10:50.644Z,12.70
2019-02-18T07:13:22.627Z,13.23
2019-02-18T07:15:54.643Z,12.83
2019-02-18T07:18:26.652Z,12.20
2019-02-18T07:20:58.662Z,11.43
2019-02-18T07:23:30.647Z,10.97
2019-02-18T07:26:02.655Z,13.30
2019-02-18T07:28:34.689Z,11.23
2019-02-18T07:31:06.720Z,11.13
2019-02-18T07:33:38.684Z,11.80
2019-02-18T07:36:10.674Z,11.53
2019-02-18T07:38:42.679Z,12.07
2019-02-18T07:41:14.690Z,12.67
2019-02-18T07:43:46.680Z,12.57
2019-02-18T07:46:18.653Z,12.27
2019-02-18T07:48:50.631Z,13.20
2019-02-18T07:51:22.652Z,12.13
2019-02-18T07:53:54.614Z,12.50
2019-02-18T07:56:26.604Z,12.60
2019-02-18T07:58:58.586Z,13.40
2019-02-18T08:01:30.589Z,13.93
2019-02-18T08:04:02.560Z,13.20
2019-02-18T08:06:34.565Z,13.93
2019-02-18T08:09:06.773Z,13.17
2019-02-18T08:11:38.774Z,13.57
2019-02-18T08:14:10.769Z,13.90
2019-02-18T08:16:42.774Z,13.90
2019-02-18T08:19:15.658Z,12.50
2019-02-18T08:24:26.910Z,13.63
2019-02-18T08:26:58.930Z,13.70
2019-02-18T08:29:30.933Z,13.50
2019-02-18T08:32:02.925Z,13.97
2019-02-18T08:34:34.914Z,14.47
2019-02-18T08:37:06.953Z,13.67
2019-02-18T08:39:38.961Z,14.77
2019-02-18T08:42:10.984Z,14.63
2019-02-18T08:44:42.958Z,14.70
2019-02-18T08:47:14.954Z,14.57
2019-02-18T08:49:46.971Z,14.27
2019-02-18T08:52:18.992Z,15.27
2019-02-18T08:54:56.608Z,15.43
2019-02-18T08:57:24.963Z,15.47
2019-02-18T08:59:56.973Z,15.33
2019-02-18T09:02:28.959Z,14.97
2019-02-18T09:05:00.971Z,15.00
2019-02-18T09:07:32.966Z,14.87
2019-02-18T09:10:05.302Z,14.63
2019-02-18T09:12:37.283Z,15.23
2019-02-18T09:15:09.480Z,13.43
2019-02-18T09:17:41.523Z,13.70
2019-02-18T09:20:13.587Z,14.07
2019-02-18T09:23:05.125Z,14.80
2019-02-18T09:25:56.709Z,14.03
2019-02-18T09:28:28.727Z,15.50
2019-02-18T09:31:00.735Z,14.90
2019-02-18T09:33:32.740Z,15.10
2019-02-18T09:36:04.748Z,15.17
2019-02-18T09:41:35.828Z,14.57
2019-02-18T09:44:07.873Z,15.10
2019-02-18T09:46:40.486Z,16.03
2019-02-18T09:49:13.853Z,14.57
2019-02-18T09:51:45.905Z,14.83
2019-02-18T09:54:17.889Z,15.20
2019-02-18T09:56:49.902Z,15.87
2019-02-18T09:59:23.940Z,13.77
2019-02-18T10:01:55.961Z,13.73
2019-02-18T10:04:28.036Z,13.43
2019-02-18T10:07:00.051Z,13.23
2019-02-18T10:09:32.046Z,12.10
2019-02-18T10:12:04.048Z,12.50
2019-02-18T10:14:36.041Z,12.93
2019-02-18T10:17:08.018Z,13.07
2019-02-18T10:19:40.025Z,12.57
2019-02-18T10:22:12.023Z,12.50
2019-02-18T10:24:50.726Z,12.07
2019-02-18T10:27:17.930Z,10.97
2019-02-18T10:29:50.027Z,10.93
2019-02-18T10:32:22.044Z,10.27
2019-02-18T10:34:54.082Z,9.70
2019-02-18T10:37:26.068Z,10.57
2019-02-18T10:39:58.099Z,10.53
2019-02-18T10:42:30.105Z,10.30
2019-02-18T10:45:02.146Z,10.40
2019-02-18T10:47:34.191Z,10.30
2019-02-18T10:50:07.067Z,10.70
2019-02-18T10:52:39.088Z,10.67
2019-02-18T10:55:11.184Z,9.93
2019-02-18T10:57:43.507Z,9.00
2019-02-18T11:00:15.517Z,8.77
2019-02-18T11:02:48.865Z,8.70
2019-02-18T11:05:20.858Z,8.57
2019-02-18T11:07:52.876Z,8.00
2019-02-18T11:10:24.866Z,8.27
2019-02-18T11:12:56.992Z,9.57
2019-02-18T11:15:29.284Z,9.20
2019-02-18T11:18:01.355Z,9.47
2019-02-18T11:20:33.350Z,9.57
2019-02-18T11:23:05.355Z,10.90
2019-02-18T11:25:37.346Z,9.80
2019-02-18T11:28:09.478Z,10.97
2019-02-18T11:30:41.485Z,10.87
2019-02-18T11:33:13.460Z,12.73
2019-02-18T11:35:45.437Z,13.13
2019-02-18T11:38:17.410Z,11.13
2019-02-18T11:40:49.433Z,11.07
2019-02-18T11:43:21.423Z,10.97
2019-02-18T11:45:53.404Z,10.77
2019-02-18T11:48:25.379Z,9.57
2019-02-18T11:50:57.787Z,10.37
2019-02-18T11:53:29.791Z,10.10
2019-02-18T11:56:01.790Z,10.43
2019-02-18T11:58:33.769Z,10.37
2019-02-18T12:01:05.761Z,10.47
2019-02-18T12:03:37.767Z,9.40
2019-02-18T12:06:09.761Z,10.17
2019-02-18T12:08:41.755Z,10.20
2019-02-18T12:11:13.760Z,9.93
2019-02-18T12:13:45.734Z,9.97
2019-02-18T12:16:17.750Z,9.87
2019-02-18T12:18:49.775Z,10.73
2019-02-18T12:21:21.828Z,10.70
2019-02-18T12:23:53.917Z,10.30
2019-02-18T12:26:25.921Z,10.00
2019-02-18T12:28:57.917Z,9.80
2019-02-18T12:31:29.899Z,9.33
2019-02-18T12:34:01.886Z,9.67
2019-02-18T12:36:33.866Z,8.93
2019-02-18T12:39:11.916Z,9.20
2019-02-18T12:41:48.817Z,8.83
2019-02-18T12:44:17.864Z,8.77
2019-02-18T12:46:49.888Z,9.10
2019-02-18T12:49:21.884Z,9.30
2019-02-18T12:51:53.881Z,8.70
2019-02-18T12:54:26.516Z,8.60
2019-02-18T12:56:58.593Z,8.73
2019-02-18T12:59:31.011Z,8.77
2019-02-18T13:02:03.281Z,8.20
2019-02-18T13:04:35.706Z,7.80
2019-02-18T13:07:07.696Z,7.80
2019-02-18T13:09:39.647Z,8.13
2019-02-18T13:12:11.700Z,9.10
2019-02-18T13:14:43.651Z,8.98
2019-02-18T13:17:15.661Z,8.50
2019-02-18T13:19:47.974Z,7.85
2019-02-18T13:22:20.053Z,7.67
2019-02-18T13:24:52.039Z,7.62
2019-02-18T13:27:24.012Z,7.10
2019-02-18T13:29:56.004Z,6.85
2019-02-18T13:32:28.404Z,8.10
2019-02-18T13:35:00.417Z,7.40
2019-02-18T13:37:32.407Z,7.50
2019-02-18T13:40:04.987Z,8.20
2019-02-18T13:42:37.015Z,7.80
2019-02-18T13:45:09.332Z,7.83
2019-02-18T13:47:41.445Z,7.20
2019-02-18T13:50:13.657Z,6.83
2019-02-18T13:52:45.658Z,7.12
2019-02-18T13:55:17.962Z,6.75
2019-02-18T13:57:49.904Z,6.83
2019-02-18T14:00:21.941Z,7.25
2019-02-18T14:02:53.891Z,7.30
2019-02-18T14:05:25.918Z,6.70
2019-02-18T14:07:57.884Z,7.25
2019-02-18T14:10:29.887Z,6.83
2019-02-18T14:13:01.874Z,7.35
2019-02-18T14:15:33.907Z,6.83
2019-02-18T14:18:06.061Z,6.70
2019-02-18T14:20:38.076Z,6.83
2019-02-18T14:23:10.088Z,7.05
2019-02-18T14:25:42.078Z,6.20
2019-02-18T14:28:14.053Z,7.28
2019-02-18T14:30:46.094Z,6.75
2019-02-18T14:33:18.680Z,6.20
2019-02-18T14:35:50.699Z,6.12
2019-02-18T14:38:22.721Z,6.90
2019-02-18T14:40:55.066Z,5.90
2019-02-18T14:43:27.083Z,6.25
2019-02-18T14:45:59.405Z,6.50
2019-02-18T14:48:31.378Z,6.33
2019-02-18T14:51:03.532Z,5.90
2019-02-18T14:53:35.534Z,6.67
2019-02-18T14:56:09.435Z,6.12
2019-02-18T14:58:41.417Z,6.42
2019-02-18T15:01:13.420Z,6.17
2019-02-18T15:03:45.413Z,6.87
2019-02-18T15:06:17.463Z,7.00
2019-02-18T15:08:49.466Z,6.67
2019-02-18T15:11:21.472Z,7.05
2019-02-18T15:13:53.506Z,6.15
2019-02-18T15:16:25.512Z,4.42
2019-02-18T15:18:57.560Z,3.85
2019-02-18T15:21:29.820Z,2.40
2019-02-18T15:24:01.802Z,2.58
2019-02-18T15:26:33.785Z,2.87
2019-02-18T15:29:05.776Z,2.80
2019-02-18T15:31:37.841Z,2.58
2019-02-18T15:34:10.370Z,2.80
2019-02-18T15:36:42.399Z,3.00
2019-02-18T15:39:14.383Z,2.90
2019-02-18T15:41:46.388Z,3.05
2019-02-18T15:44:18.429Z,2.85
2019-02-18T15:46:50.749Z,2.75
2019-02-18T15:49:22.777Z,2.42
2019-02-18T15:51:54.825Z,2.50
2019-02-18T15:54:26.900Z,2.27
2019-02-18T15:56:58.927Z,2.80
2019-02-18T15:59:30.937Z,2.70
2019-02-18T16:02:03.040Z,3.10
2019-02-18T16:04:35.121Z,3.13
2019-02-18T16:07:07.120Z,3.85
2019-02-18T16:09:39.188Z,4.20
2019-02-18T16:12:11.194Z,3.60
2019-02-18T16:14:43.247Z,3.27
2019-02-18T16:17:15.306Z,3.70
2019-02-18T16:19:47.372Z,4.07
2019-02-18T16:22:19.387Z,3.60
2019-02-18T16:24:51.426Z,3.43
2019-02-18T16:27:23.524Z,3.80
2019-02-18T16:29:55.567Z,3.97
2019-02-18T16:32:47.048Z,3.83
2019-02-18T16:35:19.067Z,4.00
2019-02-18T16:37:51.077Z,4.10
2019-02-18T16:40:23.123Z,4.07
2019-02-18T16:42:59.312Z,3.93
2019-02-18T16:45:29.122Z,3.60
2019-02-18T16:48:01.155Z,3.97
2019-02-18T16:50:33.186Z,3.83
2019-02-18T16:53:05.181Z,3.40
2019-02-18T16:55:39.143Z,3.83
2019-02-18T16:58:11.162Z,3.47
2019-02-18T17:00:43.235Z,4.07
2019-02-18T17:03:15.267Z,4.53
2019-02-18T17:05:47.377Z,4.83
2019-02-18T17:08:19.444Z,5.37
2019-02-18T17:10:51.500Z,4.90
2019-02-18T17:13:23.496Z,5.10
2019-02-18T17:15:55.570Z,4.83
2019-02-18T17:18:27.645Z,4.63
2019-02-18T17:20:59.744Z,37.37
2019-02-18T17:23:31.856Z,10.00
2019-02-18T17:26:03.933Z,10.20
2019-02-18T17:28:36.011Z,6.40
2019-02-18T17:31:08.034Z,6.50
2019-02-18T17:33:40.103Z,9.17
2019-02-18T17:36:12.135Z,8.80
2019-02-18T17:38:44.165Z,7.60
2019-02-18T17:41:16.232Z,6.97
2019-02-18T17:44:29.007Z,5.50
2019-02-18T17:49:39.767Z,20.70
2019-02-18T17:52:11.833Z,25.60
2019-02-18T17:54:43.904Z,11.90
2019-02-18T17:57:16.037Z,9.27
2019-02-18T17:59:48.070Z,8.80
2019-02-18T18:02:22.085Z,7.70
2019-02-18T18:04:54.134Z,18.00
2019-02-18T18:07:26.213Z,15.20
2019-02-18T18:09:58.276Z,9.97
2019-02-18T18:12:30.420Z,10.17
2019-02-18T18:15:02.594Z,14.57
2019-02-18T18:17:34.688Z,13.13
2019-02-18T18:20:07.653Z,5.83
2019-02-18T18:25:19.734Z,4.47
2019-02-18T18:27:51.841Z,4.87
2019-02-18T18:30:23.930Z,4.80
2019-02-18T18:32:56.041Z,5.60
2019-02-18T18:35:28.231Z,5.43
2019-02-18T18:38:00.332Z,6.43
2019-02-18T18:40:32.476Z,6.70
2019-02-18T18:43:04.621Z,5.77
2019-02-18T18:45:36.729Z,6.77
2019-02-18T18:48:08.777Z,6.07
2019-02-18T18:50:40.863Z,6.33
2019-02-18T18:53:12.866Z,7.30
2019-02-18T18:55:45.029Z,8.57
2019-02-18T18:58:17.045Z,9.10
2019-02-18T19:00:50.994Z,10.37
2019-02-18T19:03:23.101Z,8.87
2019-02-18T19:05:55.170Z,7.57
2019-02-18T19:08:27.210Z,7.43
2019-02-18T19:10:59.280Z,6.13
2019-02-18T19:13:31.343Z,6.40
2019-02-18T19:16:03.524Z,6.70
2019-02-18T19:18:35.764Z,7.70
2019-02-18T19:21:07.862Z,6.20
2019-02-18T19:23:41.797Z,7.00
2019-02-18T19:26:13.954Z,7.47
2019-02-18T19:28:46.557Z,7.17
2019-02-18T19:31:18.749Z,7.20
2019-02-18T19:33:51.373Z,8.13
2019-02-18T19:36:23.658Z,8.73
2019-02-18T19:39:15.453Z,7.20
2019-02-18T19:41:47.626Z,7.33
2019-02-18T19:44:20.050Z,8.00
2019-02-18T19:46:52.196Z,11.93
2019-02-18T19:49:24.278Z,15.50
2019-02-18T19:51:56.386Z,9.00
2019-02-18T19:54:28.573Z,9.30
2019-02-18T19:57:00.647Z,6.67
2019-02-18T19:59:32.728Z,6.40
2019-02-18T20:02:04.867Z,7.93
2019-02-18T20:04:36.972Z,10.27
2019-02-18T20:07:09.532Z,15.60
2019-02-18T20:09:41.635Z,19.03
2019-02-18T20:12:13.730Z,18.33
2019-02-18T20:14:46.038Z,13.97
2019-02-18T20:17:18.225Z,13.00
2019-02-18T20:19:50.711Z,8.70
2019-02-18T20:22:22.940Z,8.53
2019-02-18T20:24:55.632Z,7.37
2019-02-18T20:27:28.131Z,7.27
2019-02-18T20:30:00.309Z,7.87
2019-02-18T20:32:32.590Z,9.50
2019-02-18T20:35:04.883Z,9.70
2019-02-18T20:37:36.985Z,10.70
2019-02-18T20:40:09.304Z,10.40
2019-02-18T20:42:41.883Z,9.03
2019-02-18T20:45:14.372Z,8.20
2019-02-18T20:47:46.534Z,8.23
2019-02-18T20:50:18.597Z,8.13
2019-02-18T20:52:50.727Z,8.77
2019-02-18T20:55:23.129Z,8.67
2019-02-18T20:57:55.202Z,8.07
2019-02-18T21:00:27.241Z,9.00
2019-02-18T21:02:59.341Z,9.20
2019-02-18T21:05:31.402Z,9.40
2019-02-18T21:08:03.580Z,10.03
2019-02-18T21:10:35.632Z,9.23
2019-02-18T21:13:07.679Z,9.37
2019-02-18T21:15:40.833Z,8.97
2019-02-18T21:18:13.193Z,9.60
2019-02-18T21:20:47.095Z,8.80
2019-02-18T21:23:19.136Z,9.50
2019-02-18T21:25:51.197Z,9.33
2019-02-18T21:28:25.208Z,9.03
2019-02-18T21:30:57.369Z,8.97
2019-02-18T21:33:29.465Z,9.47
2019-02-18T21:36:01.755Z,9.27
2019-02-18T21:38:33.784Z,8.73
2019-02-18T21:41:05.826Z,8.33
2019-02-18T21:43:38.789Z,9.27
2019-02-18T21:46:10.827Z,9.03
2019-02-18T21:48:42.808Z,8.90
2019-02-18T21:51:14.873Z,10.30
2019-02-18T21:53:46.896Z,10.97
2019-02-18T21:56:18.955Z,10.03
2019-02-18T21:58:52.748Z,10.50
2019-02-18T22:01:24.794Z,10.63
2019-02-18T22:03:56.757Z,11.60
2019-02-18T22:06:29.325Z,11.50
2019-02-18T22:09:01.351Z,10.27
2019-02-18T22:11:33.375Z,9.50
2019-02-18T22:14:05.449Z,9.20
2019-02-18T22:16:38.614Z,10.10
2019-02-18T22:19:11.046Z,11.47
2019-02-18T22:21:43.484Z,12.00
2019-02-18T22:24:15.547Z,11.60
2019-02-18T22:26:47.578Z,11.70
2019-02-18T22:29:19.777Z,11.10
2019-02-18T22:31:52.205Z,10.63
2019-02-18T22:34:24.204Z,12.07
2019-02-18T22:36:56.258Z,9.60
2019-02-18T22:39:29.364Z,10.27
2019-02-18T22:42:01.377Z,9.77
2019-02-18T22:44:41.736Z,11.87
2019-02-18T22:47:09.477Z,11.03
2019-02-18T22:49:41.467Z,10.70
2019-02-18T22:52:13.467Z,11.67
2019-02-18T22:54:45.429Z,11.13
2019-02-18T22:57:17.462Z,11.73
2019-02-18T22:59:49.466Z,13.23
2019-02-18T23:02:22.772Z,13.40
2019-02-18T23:04:54.773Z,10.10
2019-02-18T23:07:26.944Z,9.83
2019-02-18T23:09:59.051Z,10.87
2019-02-18T23:12:32.867Z,9.83
2019-02-18T23:15:05.229Z,11.03
2019-02-18T23:17:37.305Z,10.00
2019-02-18T23:20:09.323Z,10.17
2019-02-18T23:22:41.328Z,10.77
2019-02-18T23:25:13.521Z,10.63
2019-02-18T23:27:45.522Z,10.50
2019-02-18T23:30:17.538Z,10.23
2019-02-18T23:32:49.577Z,9.87
2019-02-18T23:35:21.582Z,11.47
2019-02-18T23:37:53.541Z,10.70
2019-02-18T23:40:25.549Z,10.17
2019-02-18T23:42:57.519Z,9.90
2019-02-18T23:45:29.524Z,10.17
2019-02-18T23:48:01.503Z,10.00
2019-02-18T23:50:33.535Z,9.93
2019-02-18T23:53:05.947Z,9.77
2019-02-18T23:55:38.070Z,11.07
2019-02-18T23:58:10.037Z,11.67
